Airport View

Enter AWOS ICAO identifier for current METAR.

KFNL for example

KPIT 221051Z 00000KT 10SM FEW160 OVC250 17/15 A3014 RMK AO2 SLP205 T01670150

22 Sep 2017 11:44

Phone: 412-472-0145

Other Area AWOS: 42PN - KAGC - KBVI - KBTP

TAF AMD KPIT 220857Z 2209/2312 VRB03KT P6SM BKN250